sensor_id;sensor_type;location;lat;lon;timestamp;P1;P2;P0
47982;PMS5003;33751;50.816;-1.214;2022-08-19T00:01:40;18;18;
47982;PMS5003;33751;50.816;-1.214;2022-08-19T00:04:09;32;18;
47982;PMS5003;33751;50.816;-1.214;2022-08-19T00:06:39;30;13;
47982;PMS5003;33751;50.816;-1.214;2022-08-19T00:09:09;17;17;
47982;PMS5003;33751;50.816;-1.214;2022-08-19T00:11:38;17;17;
47982;PMS5003;33751;50.816;-1.214;2022-08-19T00:14:06;18;14;
47982;PMS5003;33751;50.816;-1.214;2022-08-19T00:16:34;16;16;
47982;PMS5003;33751;50.816;-1.214;2022-08-19T00:19:02;19;18;
47982;PMS5003;33751;50.816;-1.214;2022-08-19T00:21:29;18;18;
47982;PMS5003;33751;50.816;-1.214;2022-08-19T00:23:57;18;18;
47982;PMS5003;33751;50.816;-1.214;2022-08-19T00:26:25;18;18;
47982;PMS5003;33751;50.816;-1.214;2022-08-19T00:28:52;15;15;
47982;PMS5003;33751;50.816;-1.214;2022-08-19T00:31:20;16;16;
47982;PMS5003;33751;50.816;-1.214;2022-08-19T00:33:47;18;18;
47982;PMS5003;33751;50.816;-1.214;2022-08-19T00:36:14;17;17;
47982;PMS5003;33751;50.816;-1.214;2022-08-19T00:38:41;17;17;
47982;PMS5003;33751;50.816;-1.214;2022-08-19T00:41:08;19;19;
47982;PMS5003;33751;50.816;-1.214;2022-08-19T00:43:38;17;17;
47982;PMS5003;33751;50.816;-1.214;2022-08-19T00:46:05;17;17;
47982;PMS5003;33751;50.816;-1.214;2022-08-19T00:48:33;17;17;
47982;PMS5003;33751;50.816;-1.214;2022-08-19T00:51:00;17;17;
47982;PMS5003;33751;50.816;-1.214;2022-08-19T00:53:28;19;19;
47982;PMS5003;33751;50.816;-1.214;2022-08-19T00:55:58;16;16;
47982;PMS5003;33751;50.816;-1.214;2022-08-19T00:58:28;18;15;
47982;PMS5003;33751;50.816;-1.214;2022-08-19T01:00:58;17;17;
47982;PMS5003;33751;50.816;-1.214;2022-08-19T01:03:25;19;16;
47982;PMS5003;33751;50.816;-1.214;2022-08-19T01:05:51;18;18;
47982;PMS5003;33751;50.816;-1.214;2022-08-19T01:08:21;20;20;
47982;PMS5003;33751;50.816;-1.214;2022-08-19T01:10:50;19;19;
47982;PMS5003;33751;50.816;-1.214;2022-08-19T01:13:21;16;16;
47982;PMS5003;33751;50.816;-1.214;2022-08-19T01:15:52;18;18;
47982;PMS5003;33751;50.816;-1.214;2022-08-19T01:18:23;16;16;
47982;PMS5003;33751;50.816;-1.214;2022-08-19T01:20:52;15;15;
47982;PMS5003;33751;50.816;-1.214;2022-08-19T01:23:22;15;15;
47982;PMS5003;33751;50.816;-1.214;2022-08-19T01:25:51;15;15;
47982;PMS5003;33751;50.816;-1.214;2022-08-19T01:28:20;15;15;
47982;PMS5003;33751;50.816;-1.214;2022-08-19T01:30:49;16;16;
47982;PMS5003;33751;50.816;-1.214;2022-08-19T01:33:17;15;15;
47982;PMS5003;33751;50.816;-1.214;2022-08-19T01:35:44;18;18;
47982;PMS5003;33751;50.816;-1.214;2022-08-19T01:38:19;15;15;
47982;PMS5003;33751;50.816;-1.214;2022-08-19T01:40:48;15;15;
47982;PMS5003;33751;50.816;-1.214;2022-08-19T01:43:15;22;13;
47982;PMS5003;33751;50.816;-1.214;2022-08-19T01:45:42;15;15;
47982;PMS5003;33751;50.816;-1.214;2022-08-19T01:48:09;15;15;
47982;PMS5003;33751;50.816;-1.214;2022-08-19T01:50:36;13;13;
47982;PMS5003;33751;50.816;-1.214;2022-08-19T01:53:04;15;15;
47982;PMS5003;33751;50.816;-1.214;2022-08-19T01:55:34;18;18;
47982;PMS5003;33751;50.816;-1.214;2022-08-19T01:58:03;11;11;
47982;PMS5003;33751;50.816;-1.214;2022-08-19T02:00:34;13;13;
47982;PMS5003;33751;50.816;-1.214;2022-08-19T02:03:01;18;18;
47982;PMS5003;33751;50.816;-1.214;2022-08-19T02:05:28;17;16;
47982;PMS5003;33751;50.816;-1.214;2022-08-19T02:07:55;16;14;
47982;PMS5003;33751;50.816;-1.214;2022-08-19T02:10:23;17;16;
47982;PMS5003;33751;50.816;-1.214;2022-08-19T02:12:50;31;17;
47982;PMS5003;33751;50.816;-1.214;2022-08-19T02:15:17;14;14;
47982;PMS5003;33751;50.816;-1.214;2022-08-19T02:17:46;16;16;
47982;PMS5003;33751;50.816;-1.214;2022-08-19T02:20:14;15;15;
47982;PMS5003;33751;50.816;-1.214;2022-08-19T02:22:42;13;13;
47982;PMS5003;33751;50.816;-1.214;2022-08-19T02:25:09;17;17;
47982;PMS5003;33751;50.816;-1.214;2022-08-19T02:27:38;14;14;
47982;PMS5003;33751;50.816;-1.214;2022-08-19T02:30:06;15;15;
47982;PMS5003;33751;50.816;-1.214;2022-08-19T02:32:37;15;15;
47982;PMS5003;33751;50.816;-1.214;2022-08-19T02:35:05;15;15;
47982;PMS5003;33751;50.816;-1.214;2022-08-19T02:37:33;18;18;
47982;PMS5003;33751;50.816;-1.214;2022-08-19T02:40:00;15;15;
47982;PMS5003;33751;50.816;-1.214;2022-08-19T02:42:27;20;20;
47982;PMS5003;33751;50.816;-1.214;2022-08-19T02:44:55;17;17;
47982;PMS5003;33751;50.816;-1.214;2022-08-19T02:47:22;21;19;
47982;PMS5003;33751;50.816;-1.214;2022-08-19T02:49:49;14;14;
47982;PMS5003;33751;50.816;-1.214;2022-08-19T02:52:16;13;13;
47982;PMS5003;33751;50.816;-1.214;2022-08-19T02:54:43;19;19;
47982;PMS5003;33751;50.816;-1.214;2022-08-19T02:57:10;15;15;
47982;PMS5003;33751;50.816;-1.214;2022-08-19T02:59:37;15;15;
47982;PMS5003;33751;50.816;-1.214;2022-08-19T03:02:04;18;17;
47982;PMS5003;33751;50.816;-1.214;2022-08-19T03:04:30;14;13;
47982;PMS5003;33751;50.816;-1.214;2022-08-19T03:06:57;11;11;
47982;PMS5003;33751;50.816;-1.214;2022-08-19T03:09:24;18;18;
47982;PMS5003;33751;50.816;-1.214;2022-08-19T03:11:51;29;22;
47982;PMS5003;33751;50.816;-1.214;2022-08-19T03:14:18;17;17;
47982;PMS5003;33751;50.816;-1.214;2022-08-19T03:16:46;18;18;
47982;PMS5003;33751;50.816;-1.214;2022-08-19T03:19:16;19;19;
47982;PMS5003;33751;50.816;-1.214;2022-08-19T03:21:44;28;23;
47982;PMS5003;33751;50.816;-1.214;2022-08-19T03:24:12;17;17;
47982;PMS5003;33751;50.816;-1.214;2022-08-19T03:26:41;28;18;
47982;PMS5003;33751;50.816;-1.214;2022-08-19T03:29:09;28;17;
47982;PMS5003;33751;50.816;-1.214;2022-08-19T03:31:37;31;15;
47982;PMS5003;33751;50.816;-1.214;2022-08-19T03:34:05;16;16;
47982;PMS5003;33751;50.816;-1.214;2022-08-19T03:36:33;18;17;
47982;PMS5003;33751;50.816;-1.214;2022-08-19T03:39:00;17;17;
47982;PMS5003;33751;50.816;-1.214;2022-08-19T03:41:29;19;19;
47982;PMS5003;33751;50.816;-1.214;2022-08-19T03:43:57;20;17;
47982;PMS5003;33751;50.816;-1.214;2022-08-19T03:46:25;17;17;
47982;PMS5003;33751;50.816;-1.214;2022-08-19T03:48:55;18;17;
47982;PMS5003;33751;50.816;-1.214;2022-08-19T03:51:25;16;16;
47982;PMS5003;33751;50.816;-1.214;2022-08-19T03:53:54;14;14;
47982;PMS5003;33751;50.816;-1.214;2022-08-19T03:56:22;22;16;
47982;PMS5003;33751;50.816;-1.214;2022-08-19T03:58:48;18;18;
47982;PMS5003;33751;50.816;-1.214;2022-08-19T04:01:17;15;15;
47982;PMS5003;33751;50.816;-1.214;2022-08-19T04:03:46;16;16;
47982;PMS5003;33751;50.816;-1.214;2022-08-19T04:06:15;18;18;
47982;PMS5003;33751;50.816;-1.214;2022-08-19T04:08:44;19;19;
47982;PMS5003;33751;50.816;-1.214;2022-08-19T04:11:12;16;15;
47982;PMS5003;33751;50.816;-1.214;2022-08-19T04:13:41;20;20;
47982;PMS5003;33751;50.816;-1.214;2022-08-19T04:16:07;27;19;
47982;PMS5003;33751;50.816;-1.214;2022-08-19T04:18:35;18;18;
47982;PMS5003;33751;50.816;-1.214;2022-08-19T04:21:03;20;20;
47982;PMS5003;33751;50.816;-1.214;2022-08-19T04:23:31;26;21;
47982;PMS5003;33751;50.816;-1.214;2022-08-19T04:25:58;19;19;
47982;PMS5003;33751;50.816;-1.214;2022-08-19T04:28:26;19;19;
47982;PMS5003;33751;50.816;-1.214;2022-08-19T04:30:53;18;18;
47982;PMS5003;33751;50.816;-1.214;2022-08-19T04:33:21;16;16;
47982;PMS5003;33751;50.816;-1.214;2022-08-19T04:35:51;11;10;
47982;PMS5003;33751;50.816;-1.214;2022-08-19T04:38:20;20;20;
47982;PMS5003;33751;50.816;-1.214;2022-08-19T04:40:48;10;10;
47982;PMS5003;33751;50.816;-1.214;2022-08-19T04:43:17;11;11;
47982;PMS5003;33751;50.816;-1.214;2022-08-19T04:45:44;12;12;
47982;PMS5003;33751;50.816;-1.214;2022-08-19T04:48:13;28;15;
47982;PMS5003;33751;50.816;-1.214;2022-08-19T04:50:42;18;18;
47982;PMS5003;33751;50.816;-1.214;2022-08-19T04:53:09;13;13;
47982;PMS5003;33751;50.816;-1.214;2022-08-19T04:55:39;13;13;
47982;PMS5003;33751;50.816;-1.214;2022-08-19T04:58:07;14;14;
47982;PMS5003;33751;50.816;-1.214;2022-08-19T05:00:37;18;18;
47982;PMS5003;33751;50.816;-1.214;2022-08-19T05:03:04;17;17;
47982;PMS5003;33751;50.816;-1.214;2022-08-19T05:05:31;33;19;
47982;PMS5003;33751;50.816;-1.214;2022-08-19T05:07:58;15;15;
47982;PMS5003;33751;50.816;-1.214;2022-08-19T05:10:25;16;16;
47982;PMS5003;33751;50.816;-1.214;2022-08-19T05:12:51;18;18;
47982;PMS5003;33751;50.816;-1.214;2022-08-19T05:15:18;17;17;
47982;PMS5003;33751;50.816;-1.214;2022-08-19T05:17:45;18;18;
47982;PMS5003;33751;50.816;-1.214;2022-08-19T05:20:12;19;19;
47982;PMS5003;33751;50.816;-1.214;2022-08-19T05:22:39;19;19;
47982;PMS5003;33751;50.816;-1.214;2022-08-19T05:25:07;18;18;
47982;PMS5003;33751;50.816;-1.214;2022-08-19T05:27:36;21;21;
47982;PMS5003;33751;50.816;-1.214;2022-08-19T05:30:03;19;19;
47982;PMS5003;33751;50.816;-1.214;2022-08-19T05:32:32;17;17;
47982;PMS5003;33751;50.816;-1.214;2022-08-19T05:34:59;16;16;
47982;PMS5003;33751;50.816;-1.214;2022-08-19T05:37:26;18;16;
47982;PMS5003;33751;50.816;-1.214;2022-08-19T05:39:54;12;12;
47982;PMS5003;33751;50.816;-1.214;2022-08-19T05:42:21;12;12;
47982;PMS5003;33751;50.816;-1.214;2022-08-19T05:44:49;11;11;
47982;PMS5003;33751;50.816;-1.214;2022-08-19T05:47:17;11;10;
47982;PMS5003;33751;50.816;-1.214;2022-08-19T05:49:45;9;9;
47982;PMS5003;33751;50.816;-1.214;2022-08-19T05:52:13;10;10;
47982;PMS5003;33751;50.816;-1.214;2022-08-19T05:54:42;12;12;
47982;PMS5003;33751;50.816;-1.214;2022-08-19T05:57:09;17;17;
47982;PMS5003;33751;50.816;-1.214;2022-08-19T05:59:36;16;14;
47982;PMS5003;33751;50.816;-1.214;2022-08-19T06:02:03;17;16;
47982;PMS5003;33751;50.816;-1.214;2022-08-19T06:04:31;18;17;
47982;PMS5003;33751;50.816;-1.214;2022-08-19T06:06:59;17;17;
47982;PMS5003;33751;50.816;-1.214;2022-08-19T06:09:25;20;20;
47982;PMS5003;33751;50.816;-1.214;2022-08-19T06:11:52;21;21;
47982;PMS5003;33751;50.816;-1.214;2022-08-19T06:14:22;20;20;
47982;PMS5003;33751;50.816;-1.214;2022-08-19T06:16:50;15;15;
47982;PMS5003;33751;50.816;-1.214;2022-08-19T06:19:18;20;19;
47982;PMS5003;33751;50.816;-1.214;2022-08-19T06:21:47;26;26;
47982;PMS5003;33751;50.816;-1.214;2022-08-19T06:24:17;25;24;
47982;PMS5003;33751;50.816;-1.214;2022-08-19T06:26:46;30;30;
47982;PMS5003;33751;50.816;-1.214;2022-08-19T06:29:14;47;33;
47982;PMS5003;33751;50.816;-1.214;2022-08-19T06:31:44;30;30;
47982;PMS5003;33751;50.816;-1.214;2022-08-19T06:34:12;32;26;
47982;PMS5003;33751;50.816;-1.214;2022-08-19T06:36:41;35;35;
47982;PMS5003;33751;50.816;-1.214;2022-08-19T06:39:10;28;28;
47982;PMS5003;33751;50.816;-1.214;2022-08-19T06:41:40;25;25;
47982;PMS5003;33751;50.816;-1.214;2022-08-19T06:44:09;26;25;
47982;PMS5003;33751;50.816;-1.214;2022-08-19T06:46:37;29;29;
47982;PMS5003;33751;50.816;-1.214;2022-08-19T06:49:06;42;36;
47982;PMS5003;33751;50.816;-1.214;2022-08-19T06:51:33;26;26;
47982;PMS5003;33751;50.816;-1.214;2022-08-19T06:54:00;31;31;
47982;PMS5003;33751;50.816;-1.214;2022-08-19T06:56:29;49;34;
47982;PMS5003;33751;50.816;-1.214;2022-08-19T06:58:57;41;38;
47982;PMS5003;33751;50.816;-1.214;2022-08-19T07:01:24;44;44;
47982;PMS5003;33751;50.816;-1.214;2022-08-19T07:03:51;43;39;
47982;PMS5003;33751;50.816;-1.214;2022-08-19T07:06:18;41;36;
47982;PMS5003;33751;50.816;-1.214;2022-08-19T07:08:46;56;42;
47982;PMS5003;33751;50.816;-1.214;2022-08-19T07:11:15;44;44;
47982;PMS5003;33751;50.816;-1.214;2022-08-19T07:13:43;40;35;
47982;PMS5003;33751;50.816;-1.214;2022-08-19T07:16:12;30;30;
47982;PMS5003;33751;50.816;-1.214;2022-08-19T07:18:41;34;34;
47982;PMS5003;33751;50.816;-1.214;2022-08-19T07:21:09;23;22;
47982;PMS5003;33751;50.816;-1.214;2022-08-19T07:23:37;41;27;
47982;PMS5003;33751;50.816;-1.214;2022-08-19T07:26:05;25;25;
47982;PMS5003;33751;50.816;-1.214;2022-08-19T07:28:33;21;21;
47982;PMS5003;33751;50.816;-1.214;2022-08-19T07:31:00;16;16;
47982;PMS5003;33751;50.816;-1.214;2022-08-19T07:33:27;17;17;
47982;PMS5003;33751;50.816;-1.214;2022-08-19T07:35:53;15;15;
47982;PMS5003;33751;50.816;-1.214;2022-08-19T07:38:21;15;15;
47982;PMS5003;33751;50.816;-1.214;2022-08-19T07:40:48;18;18;
47982;PMS5003;33751;50.816;-1.214;2022-08-19T07:43:15;17;17;
47982;PMS5003;33751;50.816;-1.214;2022-08-19T07:45:42;19;19;
47982;PMS5003;33751;50.816;-1.214;2022-08-19T07:48:09;18;18;
47982;PMS5003;33751;50.816;-1.214;2022-08-19T07:50:35;21;21;
47982;PMS5003;33751;50.816;-1.214;2022-08-19T07:53:02;20;20;
47982;PMS5003;33751;50.816;-1.214;2022-08-19T07:55:29;18;18;
47982;PMS5003;33751;50.816;-1.214;2022-08-19T07:57:56;19;19;
47982;PMS5003;33751;50.816;-1.214;2022-08-19T08:00:23;23;23;
47982;PMS5003;33751;50.816;-1.214;2022-08-19T08:02:50;21;21;
47982;PMS5003;33751;50.816;-1.214;2022-08-19T08:05:17;22;22;
47982;PMS5003;33751;50.816;-1.214;2022-08-19T08:07:44;21;21;
47982;PMS5003;33751;50.816;-1.214;2022-08-19T08:10:11;23;23;
47982;PMS5003;33751;50.816;-1.214;2022-08-19T08:12:39;23;23;
47982;PMS5003;33751;50.816;-1.214;2022-08-19T08:15:08;22;22;
47982;PMS5003;33751;50.816;-1.214;2022-08-19T08:17:37;22;22;
47982;PMS5003;33751;50.816;-1.214;2022-08-19T08:20:05;23;23;
47982;PMS5003;33751;50.816;-1.214;2022-08-19T08:22:33;21;21;
47982;PMS5003;33751;50.816;-1.214;2022-08-19T08:25:02;37;20;
47982;PMS5003;33751;50.816;-1.214;2022-08-19T08:27:30;19;19;
47982;PMS5003;33751;50.816;-1.214;2022-08-19T08:29:56;23;23;
47982;PMS5003;33751;50.816;-1.214;2022-08-19T08:32:24;20;20;
47982;PMS5003;33751;50.816;-1.214;2022-08-19T08:34:51;22;22;
47982;PMS5003;33751;50.816;-1.214;2022-08-19T08:37:19;22;22;
47982;PMS5003;33751;50.816;-1.214;2022-08-19T08:39:45;24;24;
47982;PMS5003;33751;50.816;-1.214;2022-08-19T08:42:13;24;24;
47982;PMS5003;33751;50.816;-1.214;2022-08-19T08:44:48;24;24;
47982;PMS5003;33751;50.816;-1.214;2022-08-19T08:47:20;22;22;
47982;PMS5003;33751;50.816;-1.214;2022-08-19T08:49:50;17;17;
47982;PMS5003;33751;50.816;-1.214;2022-08-19T08:52:21;21;18;
47982;PMS5003;33751;50.816;-1.214;2022-08-19T08:54:51;23;23;
47982;PMS5003;33751;50.816;-1.214;2022-08-19T08:57:23;20;20;
47982;PMS5003;33751;50.816;-1.214;2022-08-19T08:59:55;22;21;
47982;PMS5003;33751;50.816;-1.214;2022-08-19T09:02:26;23;23;
47982;PMS5003;33751;50.816;-1.214;2022-08-19T09:04:53;23;22;
47982;PMS5003;33751;50.816;-1.214;2022-08-19T09:07:23;20;20;
47982;PMS5003;33751;50.816;-1.214;2022-08-19T09:10:10;33;17;
47982;PMS5003;33751;50.816;-1.214;2022-08-19T09:12:46;18;18;
47982;PMS5003;33751;50.816;-1.214;2022-08-19T09:15:22;19;19;
47982;PMS5003;33751;50.816;-1.214;2022-08-19T09:17:58;18;18;
47982;PMS5003;33751;50.816;-1.214;2022-08-19T09:20:26;18;16;
47982;PMS5003;33751;50.816;-1.214;2022-08-19T09:22:53;15;15;
47982;PMS5003;33751;50.816;-1.214;2022-08-19T09:25:21;18;16;
47982;PMS5003;33751;50.816;-1.214;2022-08-19T09:27:49;13;12;
47982;PMS5003;33751;50.816;-1.214;2022-08-19T09:30:18;13;13;
47982;PMS5003;33751;50.816;-1.214;2022-08-19T09:32:47;12;12;
47982;PMS5003;33751;50.816;-1.214;2022-08-19T09:35:15;12;11;
47982;PMS5003;33751;50.816;-1.214;2022-08-19T09:37:42;12;12;
47982;PMS5003;33751;50.816;-1.214;2022-08-19T09:40:10;15;14;
47982;PMS5003;33751;50.816;-1.214;2022-08-19T09:42:38;22;20;
47982;PMS5003;33751;50.816;-1.214;2022-08-19T09:45:06;25;25;
47982;PMS5003;33751;50.816;-1.214;2022-08-19T09:47:33;40;25;
47982;PMS5003;33751;50.816;-1.214;2022-08-19T09:50:00;55;46;
47982;PMS5003;33751;50.816;-1.214;2022-08-19T09:52:26;51;51;
47982;PMS5003;33751;50.816;-1.214;2022-08-19T09:54:54;60;46;
47982;PMS5003;33751;50.816;-1.214;2022-08-19T09:57:21;48;48;
47982;PMS5003;33751;50.816;-1.214;2022-08-19T09:59:48;47;41;
47982;PMS5003;33751;50.816;-1.214;2022-08-19T10:02:15;42;36;
47982;PMS5003;33751;50.816;-1.214;2022-08-19T10:04:42;53;53;
47982;PMS5003;33751;50.816;-1.214;2022-08-19T10:07:09;64;52;
47982;PMS5003;33751;50.816;-1.214;2022-08-19T10:09:35;68;52;
47982;PMS5003;33751;50.816;-1.214;2022-08-19T10:12:03;74;59;
47982;PMS5003;33751;50.816;-1.214;2022-08-19T10:14:31;64;51;
47982;PMS5003;33751;50.816;-1.214;2022-08-19T10:16:59;52;52;
47982;PMS5003;33751;50.816;-1.214;2022-08-19T10:19:26;63;48;
47982;PMS5003;33751;50.816;-1.214;2022-08-19T10:21:53;63;46;
47982;PMS5003;33751;50.816;-1.214;2022-08-19T10:24:20;63;54;
47982;PMS5003;33751;50.816;-1.214;2022-08-19T10:26:47;54;40;
47982;PMS5003;33751;50.816;-1.214;2022-08-19T10:29:14;50;43;
47982;PMS5003;33751;50.816;-1.214;2022-08-19T10:31:41;45;44;
47982;PMS5003;33751;50.816;-1.214;2022-08-19T10:34:08;48;46;
47982;PMS5003;33751;50.816;-1.214;2022-08-19T10:36:36;45;32;
47982;PMS5003;33751;50.816;-1.214;2022-08-19T10:39:05;48;33;
47982;PMS5003;33751;50.816;-1.214;2022-08-19T10:41:37;34;34;
47982;PMS5003;33751;50.816;-1.214;2022-08-19T10:44:06;39;36;
47982;PMS5003;33751;50.816;-1.214;2022-08-19T10:46:36;32;32;
47982;PMS5003;33751;50.816;-1.214;2022-08-19T10:49:05;25;22;
47982;PMS5003;33751;50.816;-1.214;2022-08-19T10:51:33;31;31;
47982;PMS5003;33751;50.816;-1.214;2022-08-19T10:53:59;22;22;
47982;PMS5003;33751;50.816;-1.214;2022-08-19T10:56:28;27;15;
47982;PMS5003;33751;50.816;-1.214;2022-08-19T10:58:55;22;18;
47982;PMS5003;33751;50.816;-1.214;2022-08-19T11:01:22;15;15;
47982;PMS5003;33751;50.816;-1.214;2022-08-19T11:03:49;25;25;
47982;PMS5003;33751;50.816;-1.214;2022-08-19T11:06:16;36;26;
47982;PMS5003;33751;50.816;-1.214;2022-08-19T11:08:43;33;24;
47982;PMS5003;33751;50.816;-1.214;2022-08-19T11:11:11;16;16;
47982;PMS5003;33751;50.816;-1.214;2022-08-19T11:13:41;19;17;
47982;PMS5003;33751;50.816;-1.214;2022-08-19T11:16:11;10;10;
47982;PMS5003;33751;50.816;-1.214;2022-08-19T11:18:40;8;8;
47982;PMS5003;33751;50.816;-1.214;2022-08-19T11:21:13;13;13;
47982;PMS5003;33751;50.816;-1.214;2022-08-19T11:23:41;12;12;
47982;PMS5003;33751;50.816;-1.214;2022-08-19T11:26:09;22;11;
47982;PMS5003;33751;50.816;-1.214;2022-08-19T11:28:37;8;8;
47982;PMS5003;33751;50.816;-1.214;2022-08-19T11:31:04;7;7;
47982;PMS5003;33751;50.816;-1.214;2022-08-19T11:33:36;20;5;
47982;PMS5003;33751;50.816;-1.214;2022-08-19T11:36:03;7;4;
47982;PMS5003;33751;50.816;-1.214;2022-08-19T11:38:30;5;5;
47982;PMS5003;33751;50.816;-1.214;2022-08-19T11:40:58;6;5;
47982;PMS5003;33751;50.816;-1.214;2022-08-19T11:43:27;5;5;
47982;PMS5003;33751;50.816;-1.214;2022-08-19T11:45:54;10;7;
47982;PMS5003;33751;50.816;-1.214;2022-08-19T11:48:22;7;5;
47982;PMS5003;33751;50.816;-1.214;2022-08-19T11:50:50;6;4;
47982;PMS5003;33751;50.816;-1.214;2022-08-19T11:53:18;2;2;
47982;PMS5003;33751;50.816;-1.214;2022-08-19T11:55:46;1;1;
47982;PMS5003;33751;50.816;-1.214;2022-08-19T11:58:14;3;3;
47982;PMS5003;33751;50.816;-1.214;2022-08-19T12:00:43;3;3;
47982;PMS5003;33751;50.816;-1.214;2022-08-19T12:03:10;4;4;
47982;PMS5003;33751;50.816;-1.214;2022-08-19T12:05:38;3;3;
47982;PMS5003;33751;50.816;-1.214;2022-08-19T12:08:06;2;2;
47982;PMS5003;33751;50.816;-1.214;2022-08-19T12:10:34;3;3;
47982;PMS5003;33751;50.816;-1.214;2022-08-19T12:13:02;3;3;
47982;PMS5003;33751;50.816;-1.214;2022-08-19T12:15:29;3;2;
47982;PMS5003;33751;50.816;-1.214;2022-08-19T12:17:56;2;2;
47982;PMS5003;33751;50.816;-1.214;2022-08-19T12:20:24;3;3;
47982;PMS5003;33751;50.816;-1.214;2022-08-19T12:22:51;1;1;
47982;PMS5003;33751;50.816;-1.214;2022-08-19T12:25:19;2;2;
47982;PMS5003;33751;50.816;-1.214;2022-08-19T12:27:46;2;2;
47982;PMS5003;33751;50.816;-1.214;2022-08-19T12:30:13;0;0;
47982;PMS5003;33751;50.816;-1.214;2022-08-19T12:32:40;2;2;
47982;PMS5003;33751;50.816;-1.214;2022-08-19T12:35:07;2;2;
47982;PMS5003;33751;50.816;-1.214;2022-08-19T12:37:34;4;1;
47982;PMS5003;33751;50.816;-1.214;2022-08-19T12:40:02;2;2;
47982;PMS5003;33751;50.816;-1.214;2022-08-19T12:42:30;0;0;
47982;PMS5003;33751;50.816;-1.214;2022-08-19T12:44:57;1;1;
47982;PMS5003;33751;50.816;-1.214;2022-08-19T12:47:24;2;2;
47982;PMS5003;33751;50.816;-1.214;2022-08-19T12:49:51;2;2;
47982;PMS5003;33751;50.816;-1.214;2022-08-19T12:52:18;3;2;
47982;PMS5003;33751;50.816;-1.214;2022-08-19T12:54:45;2;2;
47982;PMS5003;33751;50.816;-1.214;2022-08-19T12:57:12;2;2;
47982;PMS5003;33751;50.816;-1.214;2022-08-19T12:59:39;2;2;
47982;PMS5003;33751;50.816;-1.214;2022-08-19T13:02:07;1;1;
47982;PMS5003;33751;50.816;-1.214;2022-08-19T13:04:34;1;1;
47982;PMS5003;33751;50.816;-1.214;2022-08-19T13:07:02;2;2;
47982;PMS5003;33751;50.816;-1.214;2022-08-19T13:09:29;3;3;
47982;PMS5003;33751;50.816;-1.214;2022-08-19T13:11:56;2;2;
47982;PMS5003;33751;50.816;-1.214;2022-08-19T13:14:24;2;2;
47982;PMS5003;33751;50.816;-1.214;2022-08-19T13:16:51;2;1;
47982;PMS5003;33751;50.816;-1.214;2022-08-19T13:19:17;1;1;
47982;PMS5003;33751;50.816;-1.214;2022-08-19T13:21:44;2;2;
47982;PMS5003;33751;50.816;-1.214;2022-08-19T13:24:15;2;2;
47982;PMS5003;33751;50.816;-1.214;2022-08-19T13:26:42;1;1;
47982;PMS5003;33751;50.816;-1.214;2022-08-19T13:29:09;1;1;
47982;PMS5003;33751;50.816;-1.214;2022-08-19T13:31:36;1;1;
47982;PMS5003;33751;50.816;-1.214;2022-08-19T13:34:06;1;1;
47982;PMS5003;33751;50.816;-1.214;2022-08-19T13:36:34;2;2;
47982;PMS5003;33751;50.816;-1.214;2022-08-19T13:39:01;1;1;
47982;PMS5003;33751;50.816;-1.214;2022-08-19T13:41:28;1;1;
47982;PMS5003;33751;50.816;-1.214;2022-08-19T13:43:56;1;1;
47982;PMS5003;33751;50.816;-1.214;2022-08-19T13:46:23;0;0;
47982;PMS5003;33751;50.816;-1.214;2022-08-19T13:48:49;3;3;
47982;PMS5003;33751;50.816;-1.214;2022-08-19T13:51:17;2;2;
47982;PMS5003;33751;50.816;-1.214;2022-08-19T13:53:44;2;2;
47982;PMS5003;33751;50.816;-1.214;2022-08-19T13:56:11;0;0;
47982;PMS5003;33751;50.816;-1.214;2022-08-19T13:58:40;1;1;
47982;PMS5003;33751;50.816;-1.214;2022-08-19T14:01:07;2;2;
47982;PMS5003;33751;50.816;-1.214;2022-08-19T14:03:35;3;2;
47982;PMS5003;33751;50.816;-1.214;2022-08-19T14:06:03;3;2;
47982;PMS5003;33751;50.816;-1.214;2022-08-19T14:08:30;2;2;
47982;PMS5003;33751;50.816;-1.214;2022-08-19T14:10:57;14;3;
47982;PMS5003;33751;50.816;-1.214;2022-08-19T14:13:24;1;1;
47982;PMS5003;33751;50.816;-1.214;2022-08-19T14:15:51;3;3;
47982;PMS5003;33751;50.816;-1.214;2022-08-19T14:18:19;2;2;
47982;PMS5003;33751;50.816;-1.214;2022-08-19T14:20:46;2;2;
47982;PMS5003;33751;50.816;-1.214;2022-08-19T14:23:13;10;2;
47982;PMS5003;33751;50.816;-1.214;2022-08-19T14:25:39;1;1;
47982;PMS5003;33751;50.816;-1.214;2022-08-19T14:28:06;3;3;
47982;PMS5003;33751;50.816;-1.214;2022-08-19T14:30:34;2;2;
47982;PMS5003;33751;50.816;-1.214;2022-08-19T14:33:03;1;1;
47982;PMS5003;33751;50.816;-1.214;2022-08-19T14:35:31;3;2;
47982;PMS5003;33751;50.816;-1.214;2022-08-19T14:37:59;3;3;
47982;PMS5003;33751;50.816;-1.214;2022-08-19T14:40:27;1;1;
47982;PMS5003;33751;50.816;-1.214;2022-08-19T14:42:56;2;2;
47982;PMS5003;33751;50.816;-1.214;2022-08-19T14:45:26;2;2;
47982;PMS5003;33751;50.816;-1.214;2022-08-19T14:47:55;2;2;
47982;PMS5003;33751;50.816;-1.214;2022-08-19T14:50:22;2;2;
47982;PMS5003;33751;50.816;-1.214;2022-08-19T14:52:48;4;4;
47982;PMS5003;33751;50.816;-1.214;2022-08-19T14:55:16;4;4;
47982;PMS5003;33751;50.816;-1.214;2022-08-19T14:57:44;2;2;
47982;PMS5003;33751;50.816;-1.214;2022-08-19T15:00:12;3;3;
47982;PMS5003;33751;50.816;-1.214;2022-08-19T15:02:40;2;2;
47982;PMS5003;33751;50.816;-1.214;2022-08-19T15:05:07;2;2;
47982;PMS5003;33751;50.816;-1.214;2022-08-19T15:07:35;2;2;
47982;PMS5003;33751;50.816;-1.214;2022-08-19T15:10:03;3;3;
47982;PMS5003;33751;50.816;-1.214;2022-08-19T15:12:31;5;3;
47982;PMS5003;33751;50.816;-1.214;2022-08-19T15:14:58;2;2;
47982;PMS5003;33751;50.816;-1.214;2022-08-19T15:17:24;2;2;
47982;PMS5003;33751;50.816;-1.214;2022-08-19T15:19:52;4;4;
47982;PMS5003;33751;50.816;-1.214;2022-08-19T15:22:19;4;3;
47982;PMS5003;33751;50.816;-1.214;2022-08-19T15:24:46;5;5;
47982;PMS5003;33751;50.816;-1.214;2022-08-19T15:27:12;2;2;
47982;PMS5003;33751;50.816;-1.214;2022-08-19T15:29:40;2;2;
47982;PMS5003;33751;50.816;-1.214;2022-08-19T15:32:07;4;4;
47982;PMS5003;33751;50.816;-1.214;2022-08-19T15:34:34;5;4;
47982;PMS5003;33751;50.816;-1.214;2022-08-19T15:37:02;4;4;
47982;PMS5003;33751;50.816;-1.214;2022-08-19T15:39:29;3;3;
47982;PMS5003;33751;50.816;-1.214;2022-08-19T15:41:55;4;4;
47982;PMS5003;33751;50.816;-1.214;2022-08-19T15:44:23;1;1;
47982;PMS5003;33751;50.816;-1.214;2022-08-19T15:46:50;3;3;
47982;PMS5003;33751;50.816;-1.214;2022-08-19T15:49:18;2;2;
47982;PMS5003;33751;50.816;-1.214;2022-08-19T15:51:46;2;2;
47982;PMS5003;33751;50.816;-1.214;2022-08-19T15:54:15;3;3;
47982;PMS5003;33751;50.816;-1.214;2022-08-19T15:56:44;3;3;
47982;PMS5003;33751;50.816;-1.214;2022-08-19T15:59:10;1;1;
47982;PMS5003;33751;50.816;-1.214;2022-08-19T16:01:37;3;3;
47982;PMS5003;33751;50.816;-1.214;2022-08-19T16:04:05;5;3;
47982;PMS5003;33751;50.816;-1.214;2022-08-19T16:06:33;3;3;
47982;PMS5003;33751;50.816;-1.214;2022-08-19T16:09:02;7;6;
47982;PMS5003;33751;50.816;-1.214;2022-08-19T16:11:30;4;4;
47982;PMS5003;33751;50.816;-1.214;2022-08-19T16:14:00;3;3;
47982;PMS5003;33751;50.816;-1.214;2022-08-19T16:16:28;5;5;